Time;durP1;ratioP1;P1;durP2;ratioP2;P2;SDS_P1;SDS_P2;PMS_P1;PMS_P2;Temp;Humidity;BMP_temperature;BMP_pressure;BME280_temperature;BME280_humidity;BME280_pressure;Samples;Min_cycle;Max_cycle;Signal;HPM_P1;HPM_P2
2022/06/18 00:01:34;;;;;;;6.17;3.77;;;;;;;15.56;65.60;100971.03;1423421;90;22338;-82
2022/06/18 00:04:07;;;;;;;7.57;3.67;;;;;;;15.48;65.62;100970.20;1433986;90;21479;-82
2022/06/18 00:06:49;;;;;;;4.20;2.73;;;;;;;15.42;65.99;100973.51;1425899;90;21413;-82
2022/06/18 00:09:20;;;;;;;3.73;2.30;;;;;;;15.34;67.19;100970.36;1411263;92;22062;-82
2022/06/18 00:14:30;;;;;;;7.90;3.90;;;;;;;15.23;69.49;100969.34;1431077;89;20280;-82
2022/06/18 00:16:57;;;;;;;5.17;2.97;;;;;;;15.16;68.50;100971.80;1414045;91;21399;-82
2022/06/18 00:19:23;;;;;;;6.53;3.37;;;;;;;15.10;68.20;100967.13;1411531;92;21435;-83
2022/06/18 00:21:50;;;;;;;5.10;3.27;;;;;;;15.01;69.04;100964.95;1432015;90;21895;-83
2022/06/18 00:24:20;;;;;;;4.33;3.00;;;;;;;14.97;68.84;100961.47;1408546;91;21384;-84
2022/06/18 00:26:47;;;;;;;4.03;3.07;;;;;;;14.93;68.55;100960.10;1439220;90;21405;-83
2022/06/18 00:29:18;;;;;;;4.07;3.10;;;;;;;14.88;68.40;100956.61;1444381;90;22454;-83
2022/06/18 00:31:45;;;;;;;4.77;2.43;;;;;;;14.85;68.10;100959.10;1446409;90;21471;-83
2022/06/18 00:34:12;;;;;;;7.83;2.57;;;;;;;14.83;68.17;100953.59;1417216;90;21977;-83
2022/06/18 00:36:42;;;;;;;4.53;2.50;;;;;;;14.83;67.97;100955.75;1414419;91;21540;-83
2022/06/18 00:39:17;;;;;;;4.77;2.40;;;;;;;14.83;67.68;100948.27;1419144;91;22553;-83
2022/06/18 00:41:47;;;;;;;3.53;2.30;;;;;;;14.81;67.56;100955.08;1439030;90;22565;-84
2022/06/18 00:44:37;;;;;;;8.55;2.17;;;;;;;14.81;67.00;100957.73;1423995;91;21584;-83
2022/06/18 00:47:14;;;;;;;2.80;2.10;;;;;;;14.82;67.02;100960.76;1442551;90;21588;-84
2022/06/18 00:49:50;;;;;;;5.10;3.00;;;;;;;14.85;66.91;100960.94;1423527;90;21412;-84
2022/06/18 00:52:24;;;;;;;5.63;2.03;;;;;;;14.85;67.07;100961.77;1423372;92;21407;-83
2022/06/18 00:55:19;;;;;;;7.00;2.20;;;;;;;14.86;66.80;100962.59;1438734;90;21951;-83
2022/06/18 00:58:00;;;;;;;2.53;2.10;;;;;;;14.84;66.81;100961.91;1410864;92;21450;-83
2022/06/18 01:00:37;;;;;;;2.25;1.87;;;;;;;14.84;67.16;100969.91;1427063;90;21531;-83
2022/06/18 01:03:05;;;;;;;2.27;2.00;;;;;;;14.85;67.10;100967.09;1391049;92;21533;-83
2022/06/18 01:05:36;;;;;;;3.07;2.07;;;;;;;14.87;67.05;100963.78;1449484;89;21398;-83
2022/06/18 01:08:14;;;;;;;4.70;2.17;;;;;;;14.92;67.16;100973.10;1448362;90;23630;-83
2022/06/18 01:10:46;;;;;;;6.97;2.40;;;;;;;14.93;66.84;100972.92;1420848;92;21362;-83
2022/06/18 01:13:16;;;;;;;3.63;2.53;;;;;;;14.94;66.63;100969.78;1410718;91;21501;-83
2022/06/18 01:15:45;;;;;;;3.52;2.22;;;;;;;14.90;66.92;100969.25;1434946;90;21494;-83
2022/06/18 01:18:12;;;;;;;3.67;2.23;;;;;;;14.86;67.12;100970.08;1425960;90;21436;-82
2022/06/18 01:20:44;;;;;;;7.37;2.30;;;;;;;14.80;67.49;100963.25;1428282;91;22514;-82
2022/06/18 01:23:40;;;;;;;3.43;2.40;;;;;;;14.70;66.92;100960.70;1426455;91;22543;-82
2022/06/18 01:26:08;;;;;;;4.67;2.43;;;;;;;14.63;67.23;100958.36;1382404;93;21633;-83
2022/06/18 01:28:34;;;;;;;5.70;2.97;;;;;;;14.56;67.40;100956.84;1438280;90;21576;-82
2022/06/18 01:31:01;;;;;;;5.20;2.63;;;;;;;14.55;67.63;100951.16;1429508;90;21502;-82
2022/06/18 01:33:27;;;;;;;2.37;1.73;;;;;;;14.55;67.87;100951.16;1443972;90;21634;-82
2022/06/18 01:35:55;;;;;;;4.27;2.13;;;;;;;14.57;67.80;100949.69;1440815;90;21542;-83
2022/06/18 01:38:24;;;;;;;11.00;2.53;;;;;;;14.60;67.41;100950.69;1442587;90;22314;-83
2022/06/18 01:44:03;;;;;;;2.83;2.43;;;;;;;14.61;67.13;100951.02;1441866;90;21501;-82
2022/06/18 01:46:31;;;;;;;4.07;2.53;;;;;;;14.59;67.22;100948.53;1446581;90;23587;-82
2022/06/18 01:48:59;;;;;;;3.57;2.70;;;;;;;14.57;67.38;100944.36;1435991;90;21478;-83
2022/06/18 01:51:35;;;;;;;3.93;2.20;;;;;;;14.54;67.25;100948.67;1448477;90;21627;-83
2022/06/18 01:54:10;;;;;;;4.33;2.00;;;;;;;14.50;67.20;100947.28;1442741;90;22293;-83
2022/06/18 01:56:42;;;;;;;2.80;2.00;;;;;;;14.46;67.05;100944.11;1419961;92;21450;-84
2022/06/18 01:59:34;;;;;;;3.23;1.90;;;;;;;14.45;67.20;100949.94;1403074;92;21627;-83
2022/06/18 02:02:03;;;;;;;3.23;2.40;;;;;;;14.45;67.38;100942.45;1441764;90;21458;-84
2022/06/18 02:04:32;;;;;;;6.93;2.13;;;;;;;14.45;67.34;100947.27;1411617;91;22469;-82
2022/06/18 02:06:58;;;;;;;4.70;2.87;;;;;;;14.49;67.06;100949.61;1436618;90;22278;-84
2022/06/18 02:09:42;;;;;;;4.23;2.30;;;;;;;14.50;67.10;100945.94;1444276;90;21435;-84
2022/06/18 02:12:22;;;;;;;4.77;1.97;;;;;;;14.51;66.84;100950.30;1443783;90;21456;-84
2022/06/18 02:15:02;;;;;;;6.08;3.25;;;;;;;14.53;66.88;100950.52;1442622;90;21479;-84
2022/06/18 02:17:30;;;;;;;7.58;2.08;;;;;;;14.55;66.64;100950.33;1420654;90;21546;-83
2022/06/18 02:20:10;;;;;;;9.63;2.50;;;;;;;14.56;66.28;100945.36;1424412;91;21548;-83
2022/06/18 02:22:44;;;;;;;3.75;1.80;;;;;;;14.57;66.29;100955.02;1373184;95;21592;-83
2022/06/18 02:25:13;;;;;;;3.53;2.03;;;;;;;14.58;66.20;100951.34;1375868;94;21482;-83
2022/06/18 02:27:41;;;;;;;6.07;1.80;;;;;;;14.57;66.20;100953.68;1365555;95;21998;-83
2022/06/18 02:30:21;;;;;;;4.20;2.17;;;;;;;14.54;66.59;100949.50;1364910;95;21480;-83
2022/06/18 02:33:05;;;;;;;4.80;1.87;;;;;;;14.55;67.26;100951.66;1373620;95;21584;-81
2022/06/18 02:35:32;;;;;;;2.97;2.00;;;;;;;14.53;66.99;100954.98;1391437;94;21733;-82
2022/06/18 02:38:00;;;;;;;4.70;2.40;;;;;;;14.52;67.03;100956.81;1389003;94;21568;-81
2022/06/18 02:40:30;;;;;;;3.53;1.87;;;;;;;14.50;67.48;100959.27;1395918;94;21407;-83
2022/06/18 02:43:00;;;;;;;5.72;2.22;;;;;;;14.49;67.10;100950.95;1392564;94;21664;-84
2022/06/18 02:45:29;;;;;;;6.40;2.35;;;;;;;14.47;67.11;100954.26;1373678;94;21517;-84
2022/06/18 02:47:58;;;;;;;3.57;2.43;;;;;;;14.44;67.08;100949.61;1365559;95;21377;-82
2022/06/18 02:50:29;;;;;;;5.00;2.17;;;;;;;14.41;67.05;100949.94;1365296;95;21488;-82
2022/06/18 02:53:00;;;;;;;3.70;2.60;;;;;;;14.38;67.24;100955.55;1372915;95;21444;-82
2022/06/18 02:55:31;;;;;;;2.90;1.98;;;;;;;14.35;67.31;100953.20;1374918;94;23341;-82
2022/06/18 02:58:09;;;;;;;3.87;1.90;;;;;;;14.31;67.48;100959.86;1395851;94;22548;-82
2022/06/18 03:00:38;;;;;;;18.03;2.73;;;;;;;14.32;67.89;100959.35;1440699;90;21722;-82
2022/06/18 03:03:11;;;;;;;2.43;2.10;;;;;;;14.33;68.67;100959.21;1426511;90;21399;-82
2022/06/18 03:05:38;;;;;;;4.53;2.10;;;;;;;14.37;68.16;100964.54;1385313;93;21621;-82
2022/06/18 03:08:05;;;;;;;4.60;2.50;;;;;;;14.39;67.98;100962.56;1434359;90;21456;-82
2022/06/18 03:13:20;;;;;;;6.63;2.13;;;;;;;14.38;68.08;100962.70;1448170;90;21398;-82
2022/06/18 03:15:48;;;;;;;3.23;2.40;;;;;;;14.34;68.40;100962.70;1445091;90;21406;-81
2022/06/18 03:18:18;;;;;;;3.57;2.10;;;;;;;14.27;68.33;100957.19;1440997;90;23343;-82
2022/06/18 03:20:49;;;;;;;3.43;2.57;;;;;;;14.25;68.24;100957.83;1422602;90;21963;-82
2022/06/18 03:23:18;;;;;;;2.90;2.13;;;;;;;14.28;68.40;100964.67;1380817;93;21589;-82
2022/06/18 03:25:44;;;;;;;3.70;2.37;;;;;;;14.27;69.51;100959.84;1442997;89;21406;-83
2022/06/18 03:28:14;;;;;;;6.20;2.13;;;;;;;14.31;69.56;100962.52;1439653;90;21405;-83
2022/06/18 03:30:42;;;;;;;3.33;1.90;;;;;;;14.37;69.56;100964.54;1438367;90;21443;-83
2022/06/18 03:33:10;;;;;;;4.90;2.53;;;;;;;14.42;69.28;100964.91;1434517;90;21650;-81
2022/06/18 03:35:43;;;;;;;11.60;3.43;;;;;;;14.49;69.31;100968.26;1432508;91;21590;-80
2022/06/18 03:38:11;;;;;;;11.83;3.17;;;;;;;14.54;69.53;100964.66;1429541;91;22315;-81
2022/06/18 03:40:38;;;;;;;9.33;2.53;;;;;;;14.57;69.18;100963.83;1427883;90;21486;-81
2022/06/18 03:43:04;;;;;;;6.83;2.70;;;;;;;14.61;68.95;100965.16;1434088;91;22277;-81
2022/06/18 03:45:41;;;;;;;3.87;2.63;;;;;;;14.62;68.87;100970.85;1440350;90;21493;-81
2022/06/18 03:48:10;;;;;;;5.43;2.43;;;;;;;14.66;68.61;100970.02;1447854;90;21567;-81
2022/06/18 03:50:36;;;;;;;3.93;2.20;;;;;;;14.69;69.02;100969.70;1418849;90;21535;-81
2022/06/18 03:53:02;;;;;;;6.03;1.97;;;;;;;14.75;68.99;100966.38;1389317;94;21538;-82
2022/06/18 03:55:28;;;;;;;4.33;2.40;;;;;;;14.80;69.03;100969.41;1427147;91;21413;-83
2022/06/18 03:57:54;;;;;;;4.97;2.37;;;;;;;14.86;68.58;100962.59;1436234;91;23306;-83
2022/06/18 04:00:23;;;;;;;6.73;2.23;;;;;;;14.95;68.60;100964.78;1434224;90;21451;-83
2022/06/18 04:02:49;;;;;;;3.43;2.27;;;;;;;15.00;68.37;100965.13;1439028;90;21376;-81
2022/06/18 04:05:16;;;;;;;3.37;2.40;;;;;;;15.06;68.35;100967.97;1455312;90;21413;-81
2022/06/18 04:07:43;;;;;;;4.77;2.73;;;;;;;15.07;68.57;100963.47;1437751;90;22485;-81
2022/06/18 04:10:17;;;;;;;12.73;3.17;;;;;;;15.12;68.21;100962.48;1431204;91;21405;-85
2022/06/18 04:12:44;;;;;;;9.60;2.90;;;;;;;15.16;68.16;100965.14;1431844;90;23230;-81
2022/06/18 04:15:13;;;;;;;10.20;3.23;;;;;;;15.21;68.44;100966.83;1444358;91;21369;-81
2022/06/18 04:17:41;;;;;;;5.43;2.20;;;;;;;15.27;68.97;100966.16;1436054;90;21427;-82
2022/06/18 04:20:24;;;;;;;3.77;2.10;;;;;;;15.33;68.85;100968.19;1448214;90;21435;-81
2022/06/18 04:22:51;;;;;;;8.60;2.97;;;;;;;15.41;69.06;100969.18;1407014;93;22469;-81
2022/06/18 04:25:17;;;;;;;10.03;2.80;;;;;;;15.49;69.13;100967.35;1439495;90;21421;-81
2022/06/18 04:27:43;;;;;;;3.90;2.40;;;;;;;15.58;68.57;100965.52;1427437;91;21428;-82
2022/06/18 04:30:12;;;;;;;6.13;2.27;;;;;;;15.67;68.39;100969.02;1425670;91;21523;-81
2022/06/18 04:32:38;;;;;;;6.33;2.57;;;;;;;15.70;67.87;100960.20;1430965;91;22351;-81
2022/06/18 04:35:08;;;;;;;6.40;2.97;;;;;;;15.81;68.10;100968.87;1436168;90;21413;-81
2022/06/18 04:37:34;;;;;;;3.33;1.80;;;;;;;15.89;67.75;100960.86;1386121;93;21474;-81
2022/06/18 04:40:00;;;;;;;5.90;3.20;;;;;;;16.01;67.31;100958.16;1440043;91;21450;-81
2022/06/18 04:42:27;;;;;;;8.63;2.27;;;;;;;16.13;66.87;100958.63;1435807;90;21375;-81
2022/06/18 04:44:54;;;;;;;6.27;2.93;;;;;;;16.27;66.69;100961.10;1435184;91;22381;-81
2022/06/18 04:47:20;;;;;;;7.17;2.50;;;;;;;16.39;66.58;100965.89;1422117;89;21383;-81
2022/06/18 04:49:46;;;;;;;5.63;2.47;;;;;;;16.51;66.90;100969.02;1441327;90;22344;-80
2022/06/18 04:52:12;;;;;;;9.77;2.40;;;;;;;16.66;66.78;100972.64;1438897;90;21494;-81
2022/06/18 04:54:39;;;;;;;8.53;2.67;;;;;;;16.77;65.60;100972.77;1426445;91;22411;-82
2022/06/18 04:57:05;;;;;;;4.07;2.17;;;;;;;16.92;65.56;100974.22;1432574;91;21479;-78
2022/06/18 04:59:32;;;;;;;8.73;2.17;;;;;;;17.07;65.16;100975.63;1430634;90;21397;-78
2022/06/18 05:02:05;;;;;;;6.60;2.23;;;;;;;17.18;63.84;100978.41;1439947;90;22678;-78
2022/06/18 05:04:31;;;;;;;3.33;2.37;;;;;;;17.29;63.06;100983.32;1450526;90;21448;-78
2022/06/18 05:06:57;;;;;;;7.00;2.90;;;;;;;17.41;62.55;100988.61;1430998;90;21362;-78
2022/06/18 05:09:24;;;;;;;6.93;1.97;;;;;;;17.52;62.74;100984.17;1420953;90;21435;-78
2022/06/18 05:11:50;;;;;;;5.50;2.87;;;;;;;17.63;62.35;100982.89;1444827;90;21399;-78
2022/06/18 05:14:16;;;;;;;3.27;2.20;;;;;;;17.76;61.99;100986.31;1447216;90;21545;-78
2022/06/18 05:16:44;;;;;;;4.23;2.27;;;;;;;17.88;62.27;100992.92;1440238;90;21735;-78
2022/06/18 05:19:24;;;;;;;5.33;2.23;;;;;;;17.96;60.77;101007.58;1404362;92;22390;-78
2022/06/18 05:21:51;;;;;;;5.72;2.20;;;;;;;18.14;61.76;100994.34;1446444;90;22025;-78
2022/06/18 05:24:18;;;;;;;9.40;2.27;;;;;;;18.26;60.98;100996.89;1445986;90;21456;-78
2022/06/18 05:26:48;;;;;;;8.57;2.20;;;;;;;18.35;59.34;100996.29;1449270;90;22382;-79
2022/06/18 05:29:15;;;;;;;6.92;2.02;;;;;;;18.47;59.27;100985.91;1442436;90;21472;-79
2022/06/18 05:31:42;;;;;;;5.57;1.70;;;;;;;18.51;58.17;100985.91;1421082;92;21372;-78
2022/06/18 05:34:09;;;;;;;6.67;2.13;;;;;;;18.70;58.76;100997.37;1405691;93;21379;-78
2022/06/18 05:36:36;;;;;;;3.20;2.03;;;;;;;18.84;58.49;100991.18;1420359;91;21438;-79
2022/06/18 05:39:03;;;;;;;3.90;1.97;;;;;;;18.96;58.26;101002.28;1429310;90;22321;-79
2022/06/18 05:41:30;;;;;;;6.70;2.20;;;;;;;19.07;57.91;101008.98;1406507;93;21398;-79
2022/06/18 05:43:57;;;;;;;5.97;2.10;;;;;;;19.20;57.89;101003.77;1456114;90;21493;-80
2022/06/18 05:46:24;;;;;;;10.10;2.37;;;;;;;19.34;57.36;101004.23;1431359;90;22286;-80
2022/06/18 05:48:50;;;;;;;4.43;2.10;;;;;;;19.42;55.20;101006.45;1434912;90;21428;-79
2022/06/18 05:51:16;;;;;;;7.10;2.37;;;;;;;19.56;56.18;101010.93;1436299;90;21369;-79
2022/06/18 05:53:42;;;;;;;2.65;1.77;;;;;;;19.65;55.94;101013.86;1438868;90;22469;-79
2022/06/18 05:56:12;;;;;;;6.40;2.02;;;;;;;19.79;55.17;101013.44;1436744;90;21332;-80
2022/06/18 05:58:38;;;;;;;6.35;2.42;;;;;;;19.88;54.59;101019.50;1441586;90;22277;-79
2022/06/18 06:01:05;;;;;;;2.70;1.72;;;;;;;19.98;54.92;101022.17;1440430;90;22022;-79
2022/06/18 06:03:31;;;;;;;3.05;1.87;;;;;;;20.11;53.71;101020.61;1396793;93;21688;-79
2022/06/18 06:05:57;;;;;;;6.12;2.10;;;;;;;20.15;52.73;101017.86;1427808;90;21339;-79
2022/06/18 06:08:23;;;;;;;4.80;1.98;;;;;;;20.24;53.36;101017.50;1441600;90;21502;-80
2022/06/18 06:13:34;;;;;;;4.83;2.47;;;;;;;20.38;53.13;101018.94;1389801;93;23223;-79
2022/06/18 06:16:00;;;;;;;15.75;2.37;;;;;;;20.51;52.80;101014.96;1430433;90;21538;-80
2022/06/18 06:18:28;;;;;;;4.45;2.27;;;;;;;20.59;52.01;101012.67;1447273;90;21339;-80
2022/06/18 06:20:57;;;;;;;3.00;2.08;;;;;;;20.71;53.12;101021.82;1399057;92;21328;-80
2022/06/18 06:23:23;;;;;;;5.17;2.02;;;;;;;20.82;52.15;101013.18;1426884;90;22938;-80
2022/06/18 06:25:50;;;;;;;5.87;1.75;;;;;;;20.83;50.55;101020.24;1392047;93;21555;-80
2022/06/18 06:28:23;;;;;;;6.50;2.25;;;;;;;20.86;50.69;101010.91;1445265;90;21288;-78
2022/06/18 06:30:51;;;;;;;6.03;2.45;;;;;;;20.94;50.94;101017.47;1437260;90;21390;-78
2022/06/18 06:33:18;;;;;;;4.28;2.27;;;;;;;21.00;51.22;101018.52;1405381;91;21377;-78
2022/06/18 06:35:45;;;;;;;3.75;2.12;;;;;;;21.03;51.28;101014.08;1439188;90;21855;-78
2022/06/18 06:38:13;;;;;;;4.47;2.22;;;;;;;21.04;50.74;101020.63;1347241;91;21252;-78
2022/06/18 06:40:43;;;;;;;4.58;1.62;;;;;;;21.22;50.97;101024.08;1507506;89;22197;-79
2022/06/18 06:43:17;;;;;;;3.22;1.98;;;;;;;21.31;50.63;101017.47;1370429;92;21200;-86
2022/06/18 06:45:43;;;;;;;4.25;2.08;;;;;;;21.38;50.17;101017.54;1358341;91;21303;-86
2022/06/18 06:48:10;;;;;;;3.75;2.15;;;;;;;21.49;49.97;101025.02;1352783;91;21259;-86
2022/06/18 06:50:37;;;;;;;2.20;1.47;;;;;;;21.63;48.99;101029.35;1391242;91;21333;-86
2022/06/18 06:53:03;;;;;;;4.87;2.02;;;;;;;21.76;48.93;101025.86;1408186;92;22419;-86
2022/06/18 06:58:22;;;;;;;5.37;1.82;;;;;;;22.02;48.46;101029.59;1436507;89;21376;-87
2022/06/18 07:00:55;;;;;;;3.47;1.72;;;;;;;22.03;46.92;101017.23;1441109;90;22285;-89
2022/06/18 07:03:29;;;;;;;11.40;2.17;;;;;;;22.17;48.01;101022.12;1411955;92;22869;-87
2022/06/18 07:05:57;;;;;;;4.60;2.08;;;;;;;22.29;46.35;101027.18;1430103;89;21405;-87
2022/06/18 07:08:23;;;;;;;9.00;2.00;;;;;;;22.34;44.76;101029.26;1425340;91;23201;-87
2022/06/18 07:10:50;;;;;;;3.52;1.90;;;;;;;22.41;45.97;101019.30;1437835;90;21382;-87
2022/06/18 07:13:18;;;;;;;7.45;1.75;;;;;;;22.59;46.00;101024.55;1436974;90;21962;-87
2022/06/18 07:15:45;;;;;;;3.10;1.92;;;;;;;22.68;45.02;101017.86;1361492;90;21348;-87
2022/06/18 07:18:16;;;;;;;5.47;1.80;;;;;;;22.75;43.55;101020.00;1508785;90;22147;-86
2022/06/18 07:20:42;;;;;;;2.67;1.70;;;;;;;22.86;44.44;101020.69;1347123;93;21369;-87
2022/06/18 07:23:10;;;;;;;3.15;1.70;;;;;;;22.95;44.47;101018.59;1357596;91;21259;-87
2022/06/18 07:25:36;;;;;;;4.92;2.20;;;;;;;22.95;42.10;101019.42;1445998;90;22289;-86
2022/06/18 07:28:02;;;;;;;3.12;1.80;;;;;;;23.06;43.55;101014.41;1359064;92;21257;-87
2022/06/18 07:30:29;;;;;;;4.37;1.55;;;;;;;23.14;41.74;101010.92;1477153;90;21340;-86
2022/06/18 07:32:55;;;;;;;3.30;1.90;;;;;;;23.14;41.59;101019.03;1379317;90;21228;-87
2022/06/18 07:35:25;;;;;;;3.75;1.30;;;;;;;23.35;43.20;101015.68;1374939;91;21303;-87
2022/06/18 07:37:53;;;;;;;7.58;2.60;;;;;;;23.54;42.96;101012.02;1416962;91;21399;-87
2022/06/18 07:40:20;;;;;;;5.08;2.12;;;;;;;23.70;41.83;101014.73;1367514;90;21288;-87
2022/06/18 07:42:50;;;;;;;3.77;1.75;;;;;;;23.80;41.59;101014.25;1362863;90;21362;-87
2022/06/18 07:45:20;;;;;;;5.72;1.85;;;;;;;23.82;41.45;101010.28;1515983;90;21406;-86
2022/06/18 07:47:47;;;;;;;2.35;1.45;;;;;;;23.90;41.32;101011.86;1523257;90;21184;-86
2022/06/18 07:50:16;;;;;;;3.27;1.45;;;;;;;23.77;39.14;101019.56;1360321;91;21222;-85
2022/06/18 07:52:44;;;;;;;4.30;1.98;;;;;;;23.70;38.60;101009.32;1363759;90;22383;-86
2022/06/18 07:55:21;;;;;;;3.15;1.62;;;;;;;23.70;39.89;101010.67;1448388;90;22820;-85
2022/06/18 07:57:51;;;;;;;3.87;1.42;;;;;;;23.74;40.42;101014.61;1501100;90;21265;-86
2022/06/18 08:00:20;;;;;;;4.72;1.22;;;;;;;23.89;39.84;101012.91;1350003;91;22147;-86
2022/06/18 08:02:47;;;;;;;3.95;1.95;;;;;;;24.05;39.20;101018.27;1525140;90;21576;-84
2022/06/18 08:05:25;;;;;;;5.58;1.32;;;;;;;24.32;38.76;101017.50;1361924;90;21273;-84
2022/06/18 08:07:51;;;;;;;3.22;1.40;;;;;;;24.45;37.80;101016.55;1519176;90;21361;-86
2022/06/18 08:10:18;;;;;;;4.12;1.15;;;;;;;24.47;36.87;101015.27;1446075;90;21462;-84
2022/06/18 08:12:45;;;;;;;2.12;1.40;;;;;;;24.31;35.53;101015.33;1439467;90;21597;-84
2022/06/18 08:15:11;;;;;;;2.30;1.50;;;;;;;24.31;37.12;101016.67;1428501;90;21479;-94
2022/06/18 08:17:37;;;;;;;4.67;1.70;;;;;;;24.36;36.29;101011.92;1426628;90;21405;-94
2022/06/18 08:20:07;;;;;;;2.75;1.87;;;;;;;24.46;37.39;101012.81;1422000;90;22370;-93
2022/06/18 08:22:39;;;;;;;4.35;1.82;;;;;;;24.63;36.81;101003.03;1349302;92;21407;-93
2022/06/18 08:25:07;;;;;;;3.35;1.42;;;;;;;24.81;37.33;101002.18;1358522;92;21348;-95
2022/06/18 08:27:35;;;;;;;12.53;1.98;;;;;;;24.94;36.29;100999.81;1430891;90;21450;-94
2022/06/18 08:30:02;;;;;;;10.43;1.95;;;;;;;25.09;36.61;100996.19;1438511;90;21554;-95
2022/06/18 08:32:28;;;;;;;25.15;3.25;;;;;;;25.18;36.63;100998.89;1461652;90;21244;-94
2022/06/18 08:34:55;;;;;;;10.55;2.15;;;;;;;25.27;35.75;100999.39;1402208;91;21386;-93
2022/06/18 08:37:22;;;;;;;2.45;1.15;;;;;;;25.36;35.33;100993.11;1521827;90;21311;-94
2022/06/18 08:39:51;;;;;;;1.87;1.00;;;;;;;25.28;34.28;100996.15;1513062;90;21377;-92
2022/06/18 08:42:46;;;;;;;1.95;1.22;;;;;;;25.46;34.80;100995.24;1524725;90;21236;-91
2022/06/18 08:45:36;;;;;;;18.67;2.75;;;;;;;25.39;33.09;100992.64;1388410;91;21437;-93
2022/06/18 08:48:16;;;;;;;2.62;1.20;;;;;;;25.53;35.04;100992.73;1513206;91;21214;-94
2022/06/18 08:51:03;;;;;;;2.70;1.20;;;;;;;25.47;33.83;100982.83;1368440;92;21281;-91
2022/06/18 08:53:43;;;;;;;3.42;1.52;;;;;;;25.55;33.38;100998.76;1356674;91;21494;-91
2022/06/18 08:56:39;;;;;;;8.93;1.70;;;;;;;25.37;33.68;100985.27;1524872;90;21229;-92
2022/06/18 08:59:34;;;;;;;4.53;1.20;;;;;;;25.44;34.41;100996.84;1450509;91;21435;-89
2022/06/18 09:02:07;;;;;;;3.22;1.65;;;;;;;25.52;34.46;100996.52;1425115;93;21449;-88
2022/06/18 09:04:50;;;;;;;15.53;1.80;;;;;;;25.60;33.45;100990.73;1410627;93;21568;-90
2022/06/18 09:07:48;;;;;;;6.55;1.60;;;;;;;25.59;32.84;100990.98;1418104;93;22888;-86
2022/06/18 09:10:44;;;;;;;11.10;1.92;;;;;;;25.74;33.84;100986.45;1409915;93;22647;-85
2022/06/18 09:13:24;;;;;;;4.37;1.40;;;;;;;25.87;34.01;100990.34;1404980;93;21642;-85
2022/06/18 09:15:59;;;;;;;;;;;;;;;26.11;33.84;100997.92;1389388;94;21517;-86
2022/06/18 09:18:40;;;;;;;14.00;2.10;;;;;;;26.24;34.35;100996.33;1380639;93;21719;-88
2022/06/18 09:21:17;;;;;;;3.55;1.05;;;;;;;26.34;34.28;100993.83;1408943;93;21501;-83
2022/06/18 09:23:52;;;;;;;3.50;1.42;;;;;;;26.41;34.13;100995.05;1404471;93;21583;-91
2022/06/18 09:26:25;;;;;;;1.95;1.00;;;;;;;26.29;31.76;100991.53;1406590;93;21850;-90
2022/06/18 09:28:57;;;;;;;2.08;0.98;;;;;;;26.25;30.95;100992.55;1405445;92;21522;-92
2022/06/18 09:31:29;;;;;;;2.33;1.05;;;;;;;26.23;31.33;100991.95;1421874;91;21554;-91
2022/06/18 09:34:09;;;;;;;3.25;1.22;;;;;;;26.29;31.60;100988.28;1419176;91;21552;-90
2022/06/18 09:36:43;;;;;;;2.27;1.75;;;;;;;26.53;32.03;100985.04;1427040;91;22499;-89
2022/06/18 09:39:27;;;;;;;4.17;1.72;;;;;;;26.72;32.09;100976.71;1423505;91;21495;-92
2022/06/18 09:41:58;;;;;;;23.60;1.62;;;;;;;26.88;31.92;100979.20;1419698;91;21633;-89
2022/06/18 09:44:39;;;;;;;5.22;1.40;;;;;;;26.74;30.47;100978.66;1425578;91;21494;-89
2022/06/18 09:47:25;;;;;;;1.30;0.70;;;;;;;26.88;30.81;100977.84;1426279;91;21597;-89
2022/06/18 09:49:51;;;;;;;4.10;1.00;;;;;;;26.91;30.43;100977.36;1433389;91;22374;-89
2022/06/18 09:52:39;;;;;;;1.55;0.85;;;;;;;26.83;31.39;100977.73;1425209;91;21420;-88
2022/06/18 09:55:15;;;;;;;1.60;1.15;;;;;;;26.53;30.91;100968.75;1428248;91;21590;-88
2022/06/18 09:57:46;;;;;;;2.30;1.17;;;;;;;26.90;31.25;100967.55;1407945;91;21457;-88
2022/06/18 10:00:20;;;;;;;3.35;1.20;;;;;;;27.05;31.10;100965.67;1425322;91;21508;-88
2022/06/18 10:03:07;;;;;;;1.50;1.10;;;;;;;26.99;29.91;100962.03;1436246;91;21288;-91
2022/06/18 10:08:27;;;;;;;1.95;0.88;;;;;;;27.47;29.82;100961.23;1424316;91;21347;-89
2022/06/18 10:11:07;;;;;;;1.10;0.72;;;;;;;27.71;30.57;100956.44;1405909;91;21354;-89
2022/06/18 10:13:28;;;;;;;1.82;0.90;;;;;;;27.83;30.41;100955.32;1424897;91;21427;-90
2022/06/18 10:15:57;;;;;;;;;;;;;;;27.63;29.10;100947.65;1432345;91;21642;-90
2022/06/18 10:18:47;;;;;;;3.27;1.07;;;;;;;27.61;29.10;100944.89;1424120;91;20275;-89
2022/06/18 10:21:28;;;;;;;89.00;5.67;;;;;;;27.64;30.42;100943.84;1423768;91;21493;-90
2022/06/18 10:24:03;;;;;;;1.75;1.20;;;;;;;27.64;30.22;100938.95;1427150;90;21531;-90
2022/06/18 10:26:51;;;;;;;5.97;0.90;;;;;;;27.74;28.80;100943.20;1446511;92;21502;-90
2022/06/18 10:29:29;;;;;;;9.13;1.07;;;;;;;27.84;30.40;100938.46;1480688;92;21476;-90
2022/06/18 10:32:32;;;;;;;7.70;0.90;;;;;;;27.91;30.12;100937.77;1407862;92;22176;-88
2022/06/18 10:35:16;;;;;;;7.33;1.35;;;;;;;27.96;30.25;100938.35;1400978;92;21406;-88
2022/06/18 10:38:05;;;;;;;4.58;1.32;;;;;;;27.80;29.46;100929.98;1410171;92;21377;-90
2022/06/18 10:41:11;;;;;;;2.33;1.20;;;;;;;28.05;30.14;100923.23;1498054;92;21340;-90
2022/06/18 10:43:55;;;;;;;2.25;1.60;;;;;;;28.26;30.21;100917.00;1419141;92;21443;-90
2022/06/18 10:46:23;;;;;;;2.05;0.98;;;;;;;28.53;29.93;100925.23;1368681;96;21489;-91
2022/06/18 10:48:57;;;;;;;4.08;0.75;;;;;;;28.65;28.46;100925.63;1368593;96;21556;-91
2022/06/18 10:51:28;;;;;;;1.57;0.78;;;;;;;28.65;28.69;100929.17;1352235;96;21777;-90
2022/06/18 10:54:00;;;;;;;3.65;1.02;;;;;;;28.63;28.50;100924.54;1366817;96;21504;-90
2022/06/18 10:56:31;;;;;;;1.10;0.82;;;;;;;28.63;27.75;100917.73;1369709;96;21431;-91
2022/06/18 10:59:02;;;;;;;6.58;2.10;;;;;;;28.68;28.84;100915.58;1368140;96;21526;-89
2022/06/18 11:01:43;;;;;;;4.70;2.87;;;;;;;28.69;29.77;100922.15;1368011;96;23375;-90
2022/06/18 11:04:31;;;;;;;7.45;3.77;;;;;;;28.54;27.55;100916.52;1372884;95;21596;-94
2022/06/18 11:07:04;;;;;;;1.92;1.10;;;;;;;28.12;28.11;100917.09;1368408;95;21554;-91
2022/06/18 11:09:39;;;;;;;5.67;0.95;;;;;;;28.12;28.87;100909.74;1373154;95;21971;-91
2022/06/18 11:12:29;;;;;;;3.12;0.80;;;;;;;28.08;29.42;100915.42;1370131;95;21523;-89
2022/06/18 11:14:57;;;;;;;2.62;0.90;;;;;;;27.90;28.99;100911.08;1364593;95;22507;-92
2022/06/18 11:17:33;;;;;;;1.80;0.90;;;;;;;27.98;27.92;100913.09;1372296;95;21473;-90
2022/06/18 11:20:23;;;;;;;4.25;0.82;;;;;;;28.20;28.59;100899.51;1370641;95;21501;-89
2022/06/18 11:22:57;;;;;;;3.52;1.12;;;;;;;28.44;28.22;100906.89;1375181;91;21701;-90
2022/06/18 11:25:49;;;;;;;1.25;0.75;;;;;;;28.45;28.56;100905.80;1413220;91;23024;-89
2022/06/18 11:28:24;;;;;;;1.30;0.70;;;;;;;28.48;28.81;100910.73;1421425;90;21966;-89
2022/06/18 11:30:58;;;;;;;2.05;1.17;;;;;;;28.72;29.47;100902.57;1425841;91;21701;-89
2022/06/18 11:33:39;;;;;;;1.45;1.10;;;;;;;28.75;28.83;100906.69;1419642;91;21580;-95
2022/06/18 11:36:17;;;;;;;3.80;0.80;;;;;;;28.96;28.99;100894.08;1416957;91;21702;-96
2022/06/18 11:38:57;;;;;;;1.45;0.80;;;;;;;28.86;27.57;100898.05;1413110;91;21520;-95
2022/06/18 11:41:40;;;;;;;1.27;0.80;;;;;;;28.78;27.40;100893.37;1419771;90;21746;-95
2022/06/18 11:44:24;;;;;;;4.22;1.20;;;;;;;29.03;27.68;100900.14;1416959;90;21428;-95
2022/06/18 11:47:00;;;;;;;3.00;1.12;;;;;;;29.34;27.75;100878.59;1493244;91;21222;-96
2022/06/18 11:49:41;;;;;;;2.40;1.05;;;;;;;29.61;28.03;100880.70;1351094;93;22857;-96
2022/06/18 11:52:25;;;;;;;1.60;0.70;;;;;;;29.84;28.08;100880.86;1345037;92;21362;-94
2022/06/18 11:55:27;;;;;;;0.70;0.50;;;;;;;29.97;25.68;100879.55;1411902;91;21251;-96
2022/06/18 11:58:39;;;;;;;4.33;0.60;;;;;;;29.94;26.48;100880.63;1498220;91;22382;-94
2022/06/18 12:01:11;;;;;;;1.62;0.70;;;;;;;30.08;27.32;100874.41;1487482;91;21502;-94
2022/06/18 12:03:46;;;;;;;3.77;0.60;;;;;;;30.26;27.04;100872.32;1416539;91;21627;-95
2022/06/18 12:06:33;;;;;;;4.50;0.90;;;;;;;30.25;26.58;100866.59;1416131;91;21493;-95